createdAt,value
2023-05-04T00:01:54.961Z,8.60
2023-05-04T00:06:56.206Z,8.56
2023-05-04T00:11:57.662Z,8.50
2023-05-04T00:16:58.947Z,8.76
2023-05-04T00:22:00.471Z,8.66
2023-05-04T00:27:02.321Z,8.75
2023-05-04T00:32:03.990Z,8.79
2023-05-04T00:37:06.290Z,8.71
2023-05-04T00:42:07.674Z,8.61
2023-05-04T00:47:09.308Z,8.48
2023-05-04T00:52:10.598Z,8.49
2023-05-04T00:57:11.783Z,8.33
2023-05-04T01:02:13.133Z,8.23
2023-05-04T01:07:14.343Z,8.17
2023-05-04T01:12:15.514Z,8.17
2023-05-04T01:17:16.794Z,8.15
2023-05-04T01:22:17.953Z,8.08
2023-05-04T01:27:19.134Z,8.15
2023-05-04T01:32:20.323Z,8.02
2023-05-04T01:37:21.562Z,7.95
2023-05-04T01:42:22.775Z,7.87
2023-05-04T01:47:24.011Z,7.83
2023-05-04T01:52:26.461Z,7.85
2023-05-04T01:57:27.686Z,7.79
2023-05-04T02:02:29.051Z,7.79
2023-05-04T02:07:30.385Z,7.99
2023-05-04T02:12:31.570Z,8.27
2023-05-04T02:17:32.889Z,8.57
2023-05-04T02:22:34.082Z,8.65
2023-05-04T02:27:35.260Z,8.48
2023-05-04T02:32:36.529Z,8.18
2023-05-04T02:37:37.865Z,8.05
2023-05-04T02:42:39.045Z,7.90
2023-05-04T02:47:40.298Z,7.79
2023-05-04T02:52:41.544Z,7.70
2023-05-04T02:57:42.772Z,7.63
2023-05-04T03:02:44.086Z,7.65
2023-05-04T03:07:45.540Z,7.75
2023-05-04T03:12:46.877Z,7.96
2023-05-04T03:17:48.291Z,7.92
2023-05-04T03:22:49.566Z,7.93
2023-05-04T03:27:50.817Z,8.08
2023-05-04T03:32:52.088Z,8.18
2023-05-04T03:37:53.345Z,8.27
2023-05-04T03:42:54.538Z,8.30
2023-05-04T03:47:55.865Z,8.37
2023-05-04T03:52:57.147Z,8.13
2023-05-04T03:57:58.354Z,8.02
2023-05-04T04:02:59.631Z,7.91
2023-05-04T04:08:01.014Z,7.86
2023-05-04T04:13:02.519Z,8.03
2023-05-04T04:18:03.768Z,8.20
2023-05-04T04:23:05.068Z,8.17
2023-05-04T04:28:06.266Z,8.11
2023-05-04T04:33:07.514Z,8.05
2023-05-04T04:38:09.132Z,8.04
2023-05-04T04:43:11.319Z,8.00
2023-05-04T04:48:12.858Z,8.02
2023-05-04T04:53:14.202Z,8.13
2023-05-04T04:58:15.402Z,8.13
2023-05-04T05:03:17.118Z,8.27
2023-05-04T05:08:18.351Z,8.27
2023-05-04T05:13:19.682Z,8.36
2023-05-04T05:18:21.574Z,8.50
2023-05-04T05:23:22.768Z,8.61
2023-05-04T05:28:24.037Z,8.77
2023-05-04T05:33:25.381Z,8.99
2023-05-04T05:38:26.830Z,9.26
2023-05-04T05:43:28.124Z,9.55
2023-05-04T05:48:29.350Z,9.87
2023-05-04T05:53:30.574Z,10.10
2023-05-04T05:58:31.752Z,10.42
2023-05-04T06:03:33.267Z,10.68
2023-05-04T06:08:34.767Z,10.85
2023-05-04T06:13:35.999Z,11.05
2023-05-04T06:18:37.185Z,11.19
2023-05-04T06:23:38.421Z,11.37
2023-05-04T06:28:39.622Z,11.50
2023-05-04T06:33:40.804Z,11.58
2023-05-04T06:38:42.099Z,11.71
2023-05-04T06:43:43.697Z,11.99
2023-05-04T06:48:44.970Z,12.13
2023-05-04T06:53:46.130Z,12.19
2023-05-04T06:58:47.528Z,12.28
2023-05-04T07:03:48.936Z,12.44
2023-05-04T07:08:50.622Z,12.53
2023-05-04T07:13:51.824Z,12.72
2023-05-04T07:18:52.999Z,12.95
2023-05-04T07:23:55.065Z,13.24
2023-05-04T07:28:56.301Z,13.60
2023-05-04T07:33:57.482Z,13.77
2023-05-04T07:38:58.717Z,13.95
2023-05-04T07:43:59.957Z,14.14
2023-05-04T07:49:01.246Z,14.31
2023-05-04T07:54:02.609Z,14.48
2023-05-04T07:59:03.805Z,14.78
2023-05-04T08:04:05.058Z,15.02
2023-05-04T08:09:06.653Z,15.25
2023-05-04T08:14:08.180Z,15.56
2023-05-04T08:19:09.996Z,15.69
2023-05-04T08:24:11.409Z,15.86
2023-05-04T08:29:12.650Z,16.16
2023-05-04T08:34:13.936Z,16.53
2023-05-04T08:39:15.419Z,16.93
2023-05-04T08:44:16.648Z,17.41
2023-05-04T08:49:17.932Z,17.68
2023-05-04T08:54:19.192Z,17.97
2023-05-04T08:59:20.494Z,18.24
2023-05-04T09:04:22.348Z,18.70
2023-05-04T09:09:23.615Z,18.87
2023-05-04T09:14:24.910Z,19.13
2023-05-04T09:19:33.176Z,19.63
2023-05-04T09:24:34.423Z,20.04
2023-05-04T09:29:39.453Z,20.35
2023-05-04T09:34:40.646Z,20.58
2023-05-04T09:39:42.086Z,20.79
2023-05-04T09:44:43.277Z,21.35
2023-05-04T09:49:44.520Z,22.12
2023-05-04T09:54:45.723Z,22.69
2023-05-04T09:59:47.301Z,23.46
2023-05-04T10:04:48.525Z,23.71
2023-05-04T10:09:49.825Z,24.38
2023-05-04T10:14:51.125Z,24.79
2023-05-04T10:19:52.350Z,25.06
2023-05-04T10:24:53.510Z,25.62
2023-05-04T10:29:55.041Z,26.27
2023-05-04T10:34:57.387Z,26.96
2023-05-04T10:39:58.578Z,26.61
2023-05-04T10:45:00.142Z,26.65
2023-05-04T10:50:01.554Z,27.52
2023-05-04T10:55:04.028Z,27.67
2023-05-04T11:00:05.398Z,27.81
2023-05-04T11:05:09.989Z,27.86
2023-05-04T11:10:11.179Z,28.31
2023-05-04T11:15:12.471Z,28.50
2023-05-04T11:20:13.776Z,28.42
2023-05-04T11:25:15.052Z,28.46
2023-05-04T11:30:16.306Z,28.31
2023-05-04T11:35:18.600Z,28.39
2023-05-04T11:40:19.998Z,28.83
2023-05-04T11:45:21.237Z,29.20
2023-05-04T11:50:22.529Z,28.47
2023-05-04T11:55:23.753Z,28.78
2023-05-04T12:00:24.944Z,28.82
2023-05-04T12:05:26.213Z,27.14
2023-05-04T12:10:27.823Z,27.55
2023-05-04T12:15:29.742Z,27.06
2023-05-04T12:20:30.980Z,27.06
2023-05-04T12:25:32.248Z,27.43
2023-05-04T12:30:33.593Z,27.86
2023-05-04T12:35:34.789Z,27.68
2023-05-04T12:40:36.469Z,27.95
2023-05-04T12:45:37.717Z,27.74
2023-05-04T12:50:39.001Z,27.63
2023-05-04T12:55:40.249Z,27.62
2023-05-04T13:00:41.812Z,27.19
2023-05-04T13:05:43.791Z,27.33
2023-05-04T13:10:46.314Z,26.59
2023-05-04T13:15:48.659Z,26.52
2023-05-04T13:20:51.948Z,26.75
2023-05-04T13:25:53.230Z,26.34
2023-05-04T13:30:54.478Z,26.49
2023-05-04T13:35:57.842Z,26.62
2023-05-04T13:40:59.479Z,26.60
2023-05-04T13:46:00.985Z,26.62
2023-05-04T13:51:02.234Z,26.65
2023-05-04T13:56:03.486Z,26.45
2023-05-04T14:01:04.769Z,26.19
2023-05-04T14:06:06.145Z,26.01
2023-05-04T14:11:07.308Z,25.72
2023-05-04T14:16:08.595Z,25.75
2023-05-04T14:21:09.963Z,25.94
2023-05-04T14:26:11.476Z,25.95
2023-05-04T14:31:12.726Z,25.90
2023-05-04T14:36:14.012Z,25.74
2023-05-04T14:41:15.370Z,25.44
2023-05-04T14:46:16.619Z,25.32
2023-05-04T14:51:17.839Z,25.27
2023-05-04T14:56:19.051Z,25.35
2023-05-04T15:01:20.264Z,25.25
2023-05-04T15:06:21.540Z,25.27
2023-05-04T15:11:22.839Z,25.27
2023-05-04T15:16:29.808Z,25.19
2023-05-04T15:21:31.610Z,25.19
2023-05-04T15:26:34.439Z,24.79
2023-05-04T15:31:35.726Z,24.77
2023-05-04T15:36:36.937Z,24.75
2023-05-04T15:41:38.139Z,24.65
2023-05-04T15:46:39.445Z,24.57
2023-05-04T15:51:41.638Z,24.46
2023-05-04T15:56:43.123Z,24.40
2023-05-04T16:01:44.329Z,24.29
2023-05-04T16:06:46.062Z,24.18
2023-05-04T16:11:47.278Z,24.06
2023-05-04T16:16:48.678Z,23.85
2023-05-04T16:21:50.517Z,23.73
2023-05-04T16:26:53.653Z,23.58
2023-05-04T16:31:54.990Z,23.57
2023-05-04T16:36:56.189Z,23.58
2023-05-04T16:41:57.390Z,23.39
2023-05-04T16:46:58.601Z,23.35
2023-05-04T16:51:59.904Z,23.35
2023-05-04T16:57:02.007Z,23.11
2023-05-04T17:02:03.400Z,22.81
2023-05-04T17:07:04.696Z,22.45
2023-05-04T17:12:06.037Z,22.11
2023-05-04T17:17:08.061Z,21.89
2023-05-04T17:22:09.327Z,21.77
2023-05-04T17:27:11.431Z,21.67
2023-05-04T17:32:12.884Z,21.65
2023-05-04T17:37:14.059Z,21.62
2023-05-04T17:42:18.009Z,21.57
2023-05-04T17:47:19.220Z,21.41
2023-05-04T17:52:20.444Z,21.17
2023-05-04T17:57:21.717Z,21.02
2023-05-04T18:02:22.980Z,20.73
2023-05-04T18:07:24.244Z,20.50
2023-05-04T18:12:25.631Z,20.48
2023-05-04T18:17:28.587Z,20.51
2023-05-04T18:22:29.843Z,20.52
2023-05-04T18:27:31.590Z,20.44
2023-05-04T18:32:32.850Z,20.27
2023-05-04T18:37:34.167Z,20.11
2023-05-04T18:42:35.460Z,19.95
2023-05-04T18:47:36.799Z,19.68
2023-05-04T18:52:38.068Z,19.50
2023-05-04T18:57:39.319Z,19.36
2023-05-04T19:02:40.589Z,19.28
2023-05-04T19:07:41.905Z,19.12
2023-05-04T19:12:43.199Z,18.99
2023-05-04T19:17:44.496Z,18.80
2023-05-04T19:22:45.771Z,18.60
2023-05-04T19:27:48.557Z,18.37
2023-05-04T19:32:50.769Z,18.19
2023-05-04T19:37:52.019Z,18.05
2023-05-04T19:42:53.231Z,17.89
2023-05-04T19:47:54.459Z,17.76
2023-05-04T19:52:55.809Z,17.65
2023-05-04T19:57:57.110Z,17.53
2023-05-04T20:02:58.398Z,17.44
2023-05-04T20:08:00.342Z,17.14
2023-05-04T20:13:03.230Z,17.33
2023-05-04T20:18:04.489Z,17.32
2023-05-04T20:23:05.732Z,17.32
2023-05-04T20:28:06.982Z,17.27
2023-05-04T20:33:08.324Z,17.21
2023-05-04T20:38:09.530Z,17.12
2023-05-04T20:43:11.357Z,17.03
2023-05-04T20:48:12.688Z,16.92
2023-05-04T20:53:13.972Z,16.78
2023-05-04T20:58:15.195Z,16.74
2023-05-04T21:03:16.514Z,16.67
2023-05-04T21:08:17.780Z,16.64
2023-05-04T21:13:19.189Z,16.64
2023-05-04T21:18:20.441Z,16.58
2023-05-04T21:23:21.764Z,16.53
2023-05-04T21:28:22.980Z,16.54
2023-05-04T21:33:24.301Z,16.62
2023-05-04T21:38:25.469Z,16.66
2023-05-04T21:43:26.689Z,16.65
2023-05-04T21:48:27.846Z,16.67
2023-05-04T21:53:33.212Z,16.60
2023-05-04T21:58:34.438Z,16.58
2023-05-04T22:03:35.697Z,16.53
2023-05-04T22:08:37.206Z,16.57
2023-05-04T22:13:38.448Z,16.57
2023-05-04T22:18:39.683Z,16.58
2023-05-04T22:23:41.040Z,16.59
2023-05-04T22:28:42.235Z,16.52
2023-05-04T22:33:43.533Z,16.46
2023-05-04T22:38:44.790Z,16.42
2023-05-04T22:43:45.971Z,16.39
2023-05-04T22:48:47.313Z,16.34
2023-05-04T22:53:48.497Z,16.34
2023-05-04T22:58:49.732Z,16.34
2023-05-04T23:03:51.278Z,16.36
2023-05-04T23:08:52.608Z,16.40
2023-05-04T23:13:53.808Z,16.42
2023-05-04T23:18:55.028Z,16.41
2023-05-04T23:23:56.226Z,16.42
2023-05-04T23:28:57.460Z,16.34
2023-05-04T23:33:58.704Z,16.22
2023-05-04T23:38:59.935Z,16.17
2023-05-04T23:44:01.854Z,16.12
2023-05-04T23:49:03.682Z,16.02
2023-05-04T23:54:04.946Z,15.92
2023-05-04T23:59:06.158Z,15.83
